Back to Top

Language: 

My Weather Underground Personal Weather Station Historical Data with Graphs...

Delerius Weather Station Historical Data
Daily Summary for January 29, 2018 Units:  Both    English   Metric
« Previous Day
Next Day »
Daily Weekly Monthly Yearly Custom
  High: Low: Average:
Temperature: 51.8 °F /  11 °C 38.1 °F /  3.4 °C 46.4 °F /  8 °C
Dew Point: 47.9 °F /  8.8 °C 34.4 °F /  1.3 °C 41.8 °F /  5.4 °C
Humidity: 93 % 74 % 84 %
Wind Speed: 25.0 mph /  40.2 km/h - 11.1 mph /  17.9 km/h
Wind Gust: 41.0 mph /  66 km/h - -
Wind:- - West
Pressure: 30.41 in /  1029.7 hPa 30.05 in /  1017.5 hPa -
Precipitation: 0.18 in /  4.57 mm    
Historical Graphs
 
 
Tabular Data for January 29, 2018
Time Temperature Dew Point Pressure Wind Wind Speed Wind Gust Humidity Rainfall Rate (Hourly) solar Conditions
00:02 51.1 °F /  10.6 °C 45.1 °F /  7.3 °C 30.16 in /  1021.2 hPa WSW 23.0 mph /  37 km/h 35.0 mph /  56.3 km/h 80 % 0.00 in /  0 mm 0 W/m2
00:07 51.1 °F /  10.6 °C 45.1 °F /  7.3 °C 30.16 in /  1021.2 hPa WSW 19.0 mph /  30.6 km/h 29.0 mph /  46.7 km/h 80 % 0.00 in /  0 mm 0 W/m2
00:12 51.1 °F /  10.6 °C 45.1 °F /  7.3 °C 30.16 in /  1021.2 hPa WSW 22.0 mph /  35.4 km/h 32.0 mph /  51.5 km/h 80 % 0.00 in /  0 mm 0 W/m2
00:17 51.1 °F /  10.6 °C 45.1 °F /  7.3 °C 30.15 in /  1020.9 hPa WSW 20.0 mph /  32.2 km/h 33.0 mph /  53.1 km/h 80 % 0.00 in /  0 mm 0 W/m2
00:22 51.1 °F /  10.6 °C 45.1 °F /  7.3 °C 30.15 in /  1020.9 hPa WSW 18.0 mph /  29 km/h 30.0 mph /  48.3 km/h 80 % 0.00 in /  0 mm 0 W/m2
00:27 51.3 °F /  10.7 °C 45.3 °F /  7.4 °C 30.15 in /  1020.9 hPa WSW 17.0 mph /  27.4 km/h 26.0 mph /  41.8 km/h 80 % 0.00 in /  0 mm 0 W/m2
00:32 51.1 °F /  10.6 °C 45.1 °F /  7.3 °C 30.15 in /  1020.9 hPa WSW 20.0 mph /  32.2 km/h 29.0 mph /  46.7 km/h 80 % 0.00 in /  0 mm 0 W/m2
00:37 51.3 °F /  10.7 °C 45.0 °F /  7.2 °C 30.15 in /  1020.9 hPa WSW 19.0 mph /  30.6 km/h 29.0 mph /  46.7 km/h 79 % 0.00 in /  0 mm 0 W/m2
00:42 51.3 °F /  10.7 °C 45.0 °F /  7.2 °C 30.14 in /  1020.5 hPa WSW 25.0 mph /  40.2 km/h 41.0 mph /  66 km/h 79 % 0.00 in /  0 mm 0 W/m2
00:47 51.3 °F /  10.7 °C 45.0 °F /  7.2 °C 30.14 in /  1020.5 hPa West 23.0 mph /  37 km/h 32.0 mph /  51.5 km/h 79 % 0.00 in /  0 mm 0 W/m2
00:52 51.3 °F /  10.7 °C 45.0 °F /  7.2 °C 30.15 in /  1020.9 hPa West 21.0 mph /  33.8 km/h 31.0 mph /  49.9 km/h 79 % 0.00 in /  0 mm 0 W/m2
00:57 51.4 °F /  10.8 °C 45.1 °F /  7.3 °C 30.15 in /  1020.9 hPa WSW 24.0 mph /  38.6 km/h 35.0 mph /  56.3 km/h 79 % 0.00 in /  0 mm 0 W/m2
01:02 51.4 °F /  10.8 °C 45.1 °F /  7.3 °C 30.14 in /  1020.5 hPa WSW 18.0 mph /  29 km/h 30.0 mph /  48.3 km/h 79 % 0.00 in /  0 mm 0 W/m2
01:07 51.3 °F /  10.7 °C 45.0 °F /  7.2 °C 30.14 in /  1020.5 hPa WSW 23.0 mph /  37 km/h 33.0 mph /  53.1 km/h 79 % 0.00 in /  0 mm 0 W/m2
01:12 51.3 °F /  10.7 °C 45.0 °F /  7.2 °C 30.13 in /  1020.2 hPa WSW 23.0 mph /  37 km/h 31.0 mph /  49.9 km/h 79 % 0.00 in /  0 mm 0 W/m2
01:17 51.3 °F /  10.7 °C 45.0 °F /  7.2 °C 30.13 in /  1020.2 hPa WSW 18.0 mph /  29 km/h 28.0 mph /  45.1 km/h 79 % 0.00 in /  0 mm 0 W/m2
01:23 51.4 °F /  10.8 °C 45.1 °F /  7.3 °C 30.13 in /  1020.2 hPa WSW 21.0 mph /  33.8 km/h 35.0 mph /  56.3 km/h 79 % 0.00 in /  0 mm 0 W/m2
01:28 51.4 °F /  10.8 °C 44.8 °F /  7.1 °C 30.13 in /  1020.2 hPa WSW 22.0 mph /  35.4 km/h 30.0 mph /  48.3 km/h 78 % 0.00 in /  0 mm 0 W/m2
01:33 51.4 °F /  10.8 °C 45.1 °F /  7.3 °C 30.12 in /  1019.9 hPa WSW 21.0 mph /  33.8 km/h 33.0 mph /  53.1 km/h 79 % 0.00 in /  0 mm 0 W/m2
01:38 51.4 °F /  10.8 °C 45.1 °F /  7.3 °C 30.12 in /  1019.9 hPa WSW 18.0 mph /  29 km/h 28.0 mph /  45.1 km/h 79 % 0.00 in /  0 mm 0 W/m2
01:43 51.4 °F /  10.8 °C 45.1 °F /  7.3 °C 30.12 in /  1019.9 hPa WSW 23.0 mph /  37 km/h 33.0 mph /  53.1 km/h 79 % 0.00 in /  0 mm 0 W/m2
01:48 51.4 °F /  10.8 °C 45.1 °F /  7.3 °C 30.12 in /  1019.9 hPa WSW 24.0 mph /  38.6 km/h 33.0 mph /  53.1 km/h 79 % 0.00 in /  0 mm 0 W/m2
01:53 51.4 °F /  10.8 °C 45.1 °F /  7.3 °C 30.12 in /  1019.9 hPa WSW 21.0 mph /  33.8 km/h 34.0 mph /  54.7 km/h 79 % 0.00 in /  0 mm 0 W/m2
01:58 51.6 °F /  10.9 °C 45.3 °F /  7.4 °C 30.11 in /  1019.5 hPa WSW 21.0 mph /  33.8 km/h 35.0 mph /  56.3 km/h 79 % 0.00 in /  0 mm 0 W/m2
02:03 51.4 °F /  10.8 °C 45.1 °F /  7.3 °C 30.11 in /  1019.5 hPa WSW 23.0 mph /  37 km/h 35.0 mph /  56.3 km/h 79 % 0.00 in /  0 mm 0 W/m2
02:08 51.4 °F /  10.8 °C 45.1 °F /  7.3 °C 30.11 in /  1019.5 hPa WSW 22.0 mph /  35.4 km/h 37.0 mph /  59.5 km/h 79 % 0.00 in /  0 mm 0 W/m2
02:13 51.4 °F /  10.8 °C 45.1 °F /  7.3 °C 30.11 in /  1019.5 hPa WSW 20.0 mph /  32.2 km/h 32.0 mph /  51.5 km/h 79 % 0.00 in /  0 mm 0 W/m2
02:18 51.4 °F /  10.8 °C 45.1 °F /  7.3 °C 30.11 in /  1019.5 hPa WSW 22.0 mph /  35.4 km/h 32.0 mph /  51.5 km/h 79 % 0.00 in /  0 mm 0 W/m2
02:23 51.4 °F /  10.8 °C 45.5 °F /  7.5 °C 30.10 in /  1019.2 hPa WSW 24.0 mph /  38.6 km/h 34.0 mph /  54.7 km/h 80 % 0.00 in /  0 mm 0 W/m2
02:28 51.4 °F /  10.8 °C 45.5 °F /  7.5 °C 30.10 in /  1019.2 hPa WSW 22.0 mph /  35.4 km/h 36.0 mph /  57.9 km/h 80 % 0.00 in /  0 mm 0 W/m2
02:33 51.4 °F /  10.8 °C 45.5 °F /  7.5 °C 30.10 in /  1019.2 hPa WSW 22.0 mph /  35.4 km/h 34.0 mph /  54.7 km/h 80 % 0.00 in /  0 mm 0 W/m2
02:38 51.4 °F /  10.8 °C 45.5 °F /  7.5 °C 30.10 in /  1019.2 hPa WSW 21.0 mph /  33.8 km/h 39.0 mph /  62.8 km/h 80 % 0.00 in /  0 mm 0 W/m2
02:43 51.4 °F /  10.8 °C 45.8 °F /  7.7 °C 30.09 in /  1018.8 hPa WSW 19.0 mph /  30.6 km/h 29.0 mph /  46.7 km/h 81 % 0.00 in /  0 mm 0 W/m2
02:48 51.4 °F /  10.8 °C 45.8 °F /  7.7 °C 30.09 in /  1018.8 hPa WSW 21.0 mph /  33.8 km/h 30.0 mph /  48.3 km/h 81 % 0.00 in /  0 mm 0 W/m2
02:53 51.4 °F /  10.8 °C 45.8 °F /  7.7 °C 30.10 in /  1019.2 hPa WSW 20.0 mph /  32.2 km/h 36.0 mph /  57.9 km/h 81 % 0.00 in /  0 mm 0 W/m2
02:58 51.4 °F /  10.8 °C 45.8 °F /  7.7 °C 30.09 in /  1018.8 hPa WSW 21.0 mph /  33.8 km/h 29.0 mph /  46.7 km/h 81 % 0.00 in /  0 mm 0 W/m2
03:03 51.4 °F /  10.8 °C 45.8 °F /  7.7 °C 30.09 in /  1018.8 hPa WSW 17.0 mph /  27.4 km/h 26.0 mph /  41.8 km/h 81 % 0.00 in /  0 mm 0 W/m2
03:08 51.4 °F /  10.8 °C 45.8 °F /  7.7 °C 30.09 in /  1018.8 hPa WSW 20.0 mph /  32.2 km/h 34.0 mph /  54.7 km/h 81 % 0.00 in /  0 mm 0 W/m2
03:13 51.6 °F /  10.9 °C 46.0 °F /  7.8 °C 30.09 in /  1018.8 hPa WSW 20.0 mph /  32.2 km/h 28.0 mph /  45.1 km/h 81 % 0.00 in /  0 mm 0 W/m2
03:18 51.6 °F /  10.9 °C 46.0 °F /  7.8 °C 30.09 in /  1018.8 hPa WSW 16.0 mph /  25.7 km/h 27.0 mph /  43.5 km/h 81 % 0.00 in /  0 mm 0 W/m2
03:23 51.6 °F /  10.9 °C 46.0 °F /  7.8 °C 30.09 in /  1018.8 hPa WSW 17.0 mph /  27.4 km/h 23.0 mph /  37 km/h 81 % 0.00 in /  0 mm 0 W/m2
03:28 51.6 °F /  10.9 °C 46.0 °F /  7.8 °C 30.09 in /  1018.8 hPa WSW 16.0 mph /  25.7 km/h 28.0 mph /  45.1 km/h 81 % 0.00 in /  0 mm 0 W/m2
03:33 51.8 °F /  11 °C 46.2 °F /  7.9 °C 30.09 in /  1018.8 hPa WSW 16.0 mph /  25.7 km/h 30.0 mph /  48.3 km/h 81 % 0.00 in /  0 mm 0 W/m2
03:38 51.8 °F /  11 °C 46.2 °F /  7.9 °C 30.09 in /  1018.8 hPa WSW 15.0 mph /  24.1 km/h 25.0 mph /  40.2 km/h 81 % 0.00 in /  0 mm 0 W/m2
03:43 51.8 °F /  11 °C 46.5 °F /  8.1 °C 30.08 in /  1018.5 hPa SW 16.0 mph /  25.7 km/h 23.0 mph /  37 km/h 82 % 0.00 in /  0 mm 0 W/m2
03:48 51.6 °F /  10.9 °C 46.3 °F /  7.9 °C 30.09 in /  1018.8 hPa WSW 14.0 mph /  22.5 km/h 24.0 mph /  38.6 km/h 82 % 0.00 in /  0 mm 0 W/m2
03:53 51.6 °F /  10.9 °C 46.6 °F /  8.1 °C 30.08 in /  1018.5 hPa WSW 16.0 mph /  25.7 km/h 26.0 mph /  41.8 km/h 83 % 0.00 in /  0 mm 0 W/m2
03:58 51.4 °F /  10.8 °C 46.4 °F /  8 °C 30.08 in /  1018.5 hPa SW 19.0 mph /  30.6 km/h 29.0 mph /  46.7 km/h 83 % 0.00 in /  0 mm 0 W/m2
04:03 51.4 °F /  10.8 °C 46.4 °F /  8 °C 30.08 in /  1018.5 hPa WSW 13.0 mph /  20.9 km/h 24.0 mph /  38.6 km/h 83 % 0.00 in /  0 mm 0 W/m2
04:08 51.4 °F /  10.8 °C 46.8 °F /  8.2 °C 30.08 in /  1018.5 hPa SW 15.0 mph /  24.1 km/h 27.0 mph /  43.5 km/h 84 % 0.00 in /  0 mm 0 W/m2
04:13 51.4 °F /  10.8 °C 46.8 °F /  8.2 °C 30.08 in /  1018.5 hPa WSW 13.0 mph /  20.9 km/h 24.0 mph /  38.6 km/h 84 % 0.00 in /  0 mm 0 W/m2
04:18 51.4 °F /  10.8 °C 47.1 °F /  8.4 °C 30.07 in /  1018.2 hPa SW 14.0 mph /  22.5 km/h 21.0 mph /  33.8 km/h 85 % 0.00 in /  0 mm 0 W/m2
04:23 51.4 °F /  10.8 °C 47.1 °F /  8.4 °C 30.07 in /  1018.2 hPa SW 17.0 mph /  27.4 km/h 27.0 mph /  43.5 km/h 85 % 0.00 in /  0 mm 0 W/m2
04:28 51.3 °F /  10.7 °C 46.9 °F /  8.3 °C 30.08 in /  1018.5 hPa WSW 13.0 mph /  20.9 km/h 26.0 mph /  41.8 km/h 85 % 0.00 in /  0 mm 0 W/m2
04:33 51.3 °F /  10.7 °C 46.9 °F /  8.3 °C 30.08 in /  1018.5 hPa WSW 12.0 mph /  19.3 km/h 19.0 mph /  30.6 km/h 85 % 0.00 in /  0 mm 0 W/m2
04:38 51.3 °F /  10.7 °C 47.2 °F /  8.4 °C 30.08 in /  1018.5 hPa SW 16.0 mph /  25.7 km/h 23.0 mph /  37 km/h 86 % 0.00 in /  0 mm 0 W/m2
04:43 51.3 °F /  10.7 °C 47.2 °F /  8.4 °C 30.08 in /  1018.5 hPa SW 16.0 mph /  25.7 km/h 25.0 mph /  40.2 km/h 86 % 0.00 in /  0 mm 0 W/m2
04:49 51.3 °F /  10.7 °C 47.2 °F /  8.4 °C 30.08 in /  1018.5 hPa SW 17.0 mph /  27.4 km/h 31.0 mph /  49.9 km/h 86 % 0.00 in /  0 mm 0 W/m2
04:54 51.3 °F /  10.7 °C 47.2 °F /  8.4 °C 30.08 in /  1018.5 hPa SW 16.0 mph /  25.7 km/h 25.0 mph /  40.2 km/h 86 % 0.00 in /  0 mm 0 W/m2
04:59 51.3 °F /  10.7 °C 47.2 °F /  8.4 °C 30.08 in /  1018.5 hPa SW 17.0 mph /  27.4 km/h 25.0 mph /  40.2 km/h 86 % 0.00 in /  0 mm 0 W/m2
05:04 51.3 °F /  10.7 °C 47.2 °F /  8.4 °C 30.08 in /  1018.5 hPa SW 15.0 mph /  24.1 km/h 27.0 mph /  43.5 km/h 86 % 0.00 in /  0 mm 0 W/m2
05:09 51.3 °F /  10.7 °C 47.2 °F /  8.4 °C 30.08 in /  1018.5 hPa SW 15.0 mph /  24.1 km/h 26.0 mph /  41.8 km/h 86 % 0.00 in /  0 mm 0 W/m2
05:14 51.3 °F /  10.7 °C 47.2 °F /  8.4 °C 30.08 in /  1018.5 hPa SW 15.0 mph /  24.1 km/h 27.0 mph /  43.5 km/h 86 % 0.00 in /  0 mm 0 W/m2
05:19 51.3 °F /  10.7 °C 47.2 °F /  8.4 °C 30.08 in /  1018.5 hPa SW 15.0 mph /  24.1 km/h 25.0 mph /  40.2 km/h 86 % 0.00 in /  0 mm 0 W/m2
05:24 51.3 °F /  10.7 °C 47.2 °F /  8.4 °C 30.07 in /  1018.2 hPa SW 11.0 mph /  17.7 km/h 21.0 mph /  33.8 km/h 86 % 0.00 in /  0 mm 0 W/m2
05:29 51.3 °F /  10.7 °C 47.2 °F /  8.4 °C 30.07 in /  1018.2 hPa SW 16.0 mph /  25.7 km/h 27.0 mph /  43.5 km/h 86 % 0.00 in /  0 mm 0 W/m2
05:34 51.3 °F /  10.7 °C 47.2 °F /  8.4 °C 30.06 in /  1017.8 hPa SW 15.0 mph /  24.1 km/h 25.0 mph /  40.2 km/h 86 % 0.00 in /  0 mm 0 W/m2
05:39 51.1 °F /  10.6 °C 47.3 °F /  8.5 °C 30.06 in /  1017.8 hPa SW 11.0 mph /  17.7 km/h 15.0 mph /  24.1 km/h 87 % 0.00 in /  0 mm 0 W/m2
05:44 51.1 °F /  10.6 °C 47.3 °F /  8.5 °C 30.06 in /  1017.8 hPa SW 16.0 mph /  25.7 km/h 31.0 mph /  49.9 km/h 87 % 0.00 in /  0 mm 0 W/m2
05:49 51.1 °F /  10.6 °C 47.3 °F /  8.5 °C 30.06 in /  1017.8 hPa SW 16.0 mph /  25.7 km/h 23.0 mph /  37 km/h 87 % 0.00 in /  0 mm 0 W/m2
05:54 51.1 °F /  10.6 °C 47.3 °F /  8.5 °C 30.06 in /  1017.8 hPa SW 16.0 mph /  25.7 km/h 26.0 mph /  41.8 km/h 87 % 0.00 in /  0 mm 0 W/m2
05:59 51.1 °F /  10.6 °C 47.3 °F /  8.5 °C 30.06 in /  1017.8 hPa SW 15.0 mph /  24.1 km/h 21.0 mph /  33.8 km/h 87 % 0.00 in /  0 mm 0 W/m2
06:04 51.3 °F /  10.7 °C 47.5 °F /  8.6 °C 30.06 in /  1017.8 hPa SW 17.0 mph /  27.4 km/h 25.0 mph /  40.2 km/h 87 % 0.00 in /  0 mm 0 W/m2
06:09 51.3 °F /  10.7 °C 47.5 °F /  8.6 °C 30.06 in /  1017.8 hPa SW 13.0 mph /  20.9 km/h 20.0 mph /  32.2 km/h 87 % 0.00 in /  0 mm 0 W/m2
06:14 51.3 °F /  10.7 °C 47.2 °F /  8.4 °C 30.06 in /  1017.8 hPa SW 13.0 mph /  20.9 km/h 23.0 mph /  37 km/h 86 % 0.00 in /  0 mm 0 W/m2
06:19 51.3 °F /  10.7 °C 47.2 °F /  8.4 °C 30.06 in /  1017.8 hPa SW 13.0 mph /  20.9 km/h 23.0 mph /  37 km/h 86 % 0.00 in /  0 mm 0 W/m2
06:24 51.3 °F /  10.7 °C 47.2 °F /  8.4 °C 30.05 in /  1017.5 hPa SW 12.0 mph /  19.3 km/h 20.0 mph /  32.2 km/h 86 % 0.00 in /  0 mm 0 W/m2
06:29 51.4 °F /  10.8 °C 47.4 °F /  8.6 °C 30.06 in /  1017.8 hPa SW 16.0 mph /  25.7 km/h 23.0 mph /  37 km/h 86 % 0.00 in /  0 mm 0 W/m2
06:34 51.4 °F /  10.8 °C 47.4 °F /  8.6 °C 30.06 in /  1017.8 hPa SW 15.0 mph /  24.1 km/h 24.0 mph /  38.6 km/h 86 % 0.00 in /  0 mm 0 W/m2
06:39 51.4 °F /  10.8 °C 47.4 °F /  8.6 °C 30.06 in /  1017.8 hPa WSW 17.0 mph /  27.4 km/h 25.0 mph /  40.2 km/h 86 % 0.00 in /  0 mm 0 W/m2
06:44 51.4 °F /  10.8 °C 47.7 °F /  8.7 °C 30.06 in /  1017.8 hPa SW 14.0 mph /  22.5 km/h 21.0 mph /  33.8 km/h 87 % 0.00 in /  0 mm 0 W/m2
06:49 51.4 °F /  10.8 °C 47.7 °F /  8.7 °C 30.06 in /  1017.8 hPa SW 14.0 mph /  22.5 km/h 23.0 mph /  37 km/h 87 % 0.00 in /  0 mm 0 W/m2
06:54 51.3 °F /  10.7 °C 47.5 °F /  8.6 °C 30.06 in /  1017.8 hPa SW 14.0 mph /  22.5 km/h 22.0 mph /  35.4 km/h 87 % 0.00 in /  0 mm 0 W/m2
06:59 51.3 °F /  10.7 °C 47.5 °F /  8.6 °C 30.06 in /  1017.8 hPa SW 13.0 mph /  20.9 km/h 22.0 mph /  35.4 km/h 87 % 0.00 in /  0 mm 0 W/m2
07:04 51.3 °F /  10.7 °C 47.5 °F /  8.6 °C 30.06 in /  1017.8 hPa SW 12.0 mph /  19.3 km/h 19.0 mph /  30.6 km/h 87 % 0.00 in /  0 mm 0 W/m2
07:09 51.3 °F /  10.7 °C 47.5 °F /  8.6 °C 30.06 in /  1017.8 hPa SW 13.0 mph /  20.9 km/h 22.0 mph /  35.4 km/h 87 % 0.00 in /  0 mm 0 W/m2
07:14 51.3 °F /  10.7 °C 47.5 °F /  8.6 °C 30.06 in /  1017.8 hPa SW 14.0 mph /  22.5 km/h 24.0 mph /  38.6 km/h 87 % 0.00 in /  0 mm 0 W/m2
07:19 51.3 °F /  10.7 °C 47.5 °F /  8.6 °C 30.06 in /  1017.8 hPa SW 13.0 mph /  20.9 km/h 19.0 mph /  30.6 km/h 87 % 0.00 in /  0 mm 0 W/m2
07:24 51.3 °F /  10.7 °C 47.5 °F /  8.6 °C 30.07 in /  1018.2 hPa WSW 14.0 mph /  22.5 km/h 23.0 mph /  37 km/h 87 % 0.00 in /  0 mm 0 W/m2
07:29 51.3 °F /  10.7 °C 47.5 °F /  8.6 °C 30.07 in /  1018.2 hPa SW 13.0 mph /  20.9 km/h 23.0 mph /  37 km/h 87 % 0.00 in /  0 mm 0 W/m2
07:34 51.1 °F /  10.6 °C 47.6 °F /  8.7 °C 30.07 in /  1018.2 hPa SW 11.0 mph /  17.7 km/h 23.0 mph /  37 km/h 88 % 0.00 in /  0 mm 0 W/m2
07:39 51.1 °F /  10.6 °C 47.6 °F /  8.7 °C 30.07 in /  1018.2 hPa WSW 12.0 mph /  19.3 km/h 19.0 mph /  30.6 km/h 88 % 0.00 in /  0 mm 0 W/m2
07:44 51.1 °F /  10.6 °C 47.6 °F /  8.7 °C 30.07 in /  1018.2 hPa WSW 12.0 mph /  19.3 km/h 18.0 mph /  29 km/h 88 % 0.00 in /  0 mm 0 W/m2
07:49 51.1 °F /  10.6 °C 47.6 °F /  8.7 °C 30.08 in /  1018.5 hPa WSW 11.0 mph /  17.7 km/h 16.0 mph /  25.7 km/h 88 % 0.00 in /  0 mm 0 W/m2
07:54 50.9 °F /  10.5 °C 47.8 °F /  8.8 °C 30.08 in /  1018.5 hPa WSW 9.0 mph /  14.5 km/h 13.0 mph /  20.9 km/h 89 % 0.00 in /  0 mm 0 W/m2
08:00 50.7 °F /  10.4 °C 47.6 °F /  8.7 °C 30.08 in /  1018.5 hPa WSW 7.0 mph /  11.3 km/h 11.0 mph /  17.7 km/h 89 % 0.00 in /  0 mm 0 W/m2
08:05 50.7 °F /  10.4 °C 47.9 °F /  8.8 °C 30.09 in /  1018.8 hPa West 7.0 mph /  11.3 km/h 9.0 mph /  14.5 km/h 90 % 0.01 in /  0.25 mm 0 W/m2
08:10 50.5 °F /  10.3 °C 47.7 °F /  8.7 °C 30.09 in /  1018.8 hPa West 6.0 mph /  9.7 km/h 13.0 mph /  20.9 km/h 90 % 0.02 in /  0.51 mm 0 W/m2
08:15 50.4 °F /  10.2 °C 47.5 °F /  8.6 °C 30.09 in /  1018.8 hPa WNW 7.0 mph /  11.3 km/h 11.0 mph /  17.7 km/h 90 % 0.04 in /  1.02 mm 0 W/m2
08:20 50.2 °F /  10.1 °C 47.7 °F /  8.7 °C 30.09 in /  1018.8 hPa West 10.0 mph /  16.1 km/h 16.0 mph /  25.7 km/h 91 % 0.07 in /  1.78 mm 0 W/m2
08:25 49.8 °F /  9.9 °C 47.3 °F /  8.5 °C 30.09 in /  1018.8 hPa West 8.0 mph /  12.9 km/h 16.0 mph /  25.7 km/h 91 % 0.09 in /  2.29 mm 0 W/m2
08:30 49.5 °F /  9.7 °C 46.9 °F /  8.3 °C 30.09 in /  1018.8 hPa West 10.0 mph /  16.1 km/h 15.0 mph /  24.1 km/h 91 % 0.09 in /  2.29 mm 0 W/m2
08:35 49.5 °F /  9.7 °C 46.9 °F /  8.3 °C 30.09 in /  1018.8 hPa West 8.0 mph /  12.9 km/h 12.0 mph /  19.3 km/h 91 % 0.09 in /  2.29 mm 0 W/m2
08:40 49.3 °F /  9.6 °C 47.1 °F /  8.4 °C 30.10 in /  1019.2 hPa West 6.0 mph /  9.7 km/h 10.0 mph /  16.1 km/h 92 % 0.09 in /  2.29 mm 0 W/m2
08:45 49.3 °F /  9.6 °C 47.1 °F /  8.4 °C 30.10 in /  1019.2 hPa WNW 7.0 mph /  11.3 km/h 11.0 mph /  17.7 km/h 92 % 0.09 in /  2.29 mm 7 W/m2
08:50 49.1 °F /  9.5 °C 46.9 °F /  8.3 °C 30.10 in /  1019.2 hPa WNW 10.0 mph /  16.1 km/h 19.0 mph /  30.6 km/h 92 % 0.09 in /  2.29 mm 9 W/m2
08:55 49.1 °F /  9.5 °C 46.6 °F /  8.1 °C 30.11 in /  1019.5 hPa WNW 13.0 mph /  20.9 km/h 22.0 mph /  35.4 km/h 91 % 0.09 in /  2.29 mm 7 W/m2
09:00 48.9 °F /  9.4 °C 46.4 °F /  8 °C 30.11 in /  1019.5 hPa West 10.0 mph /  16.1 km/h 18.0 mph /  29 km/h 91 % 0.09 in /  2.29 mm 7 W/m2
09:05 48.9 °F /  9.4 °C 46.4 °F /  8 °C 30.11 in /  1019.5 hPa WNW 9.0 mph /  14.5 km/h 13.0 mph /  20.9 km/h 91 % 0.09 in /  2.29 mm 9 W/m2
09:10 48.7 °F /  9.3 °C 46.2 °F /  7.9 °C 30.11 in /  1019.5 hPa WNW 7.0 mph /  11.3 km/h 10.0 mph /  16.1 km/h 91 % 0.09 in /  2.29 mm 9 W/m2
09:15 48.7 °F /  9.3 °C 46.2 °F /  7.9 °C 30.11 in /  1019.5 hPa West 7.0 mph /  11.3 km/h 10.0 mph /  16.1 km/h 91 % 0.06 in /  1.52 mm 11 W/m2
09:20 48.6 °F /  9.2 °C 46.1 °F /  7.8 °C 30.11 in /  1019.5 hPa WNW 4.0 mph /  6.4 km/h 8.0 mph /  12.9 km/h 91 % 0.04 in /  1.02 mm 16 W/m2
09:25 48.6 °F /  9.2 °C 46.3 °F /  7.9 °C 30.11 in /  1019.5 hPa WNW 7.0 mph /  11.3 km/h 15.0 mph /  24.1 km/h 92 % 0.03 in /  0.76 mm 26 W/m2
09:30 48.4 °F /  9.1 °C 46.2 °F /  7.9 °C 30.11 in /  1019.5 hPa West 9.0 mph /  14.5 km/h 13.0 mph /  20.9 km/h 92 % 0.04 in /  1.02 mm 35 W/m2
09:35 48.4 °F /  9.1 °C 46.2 °F /  7.9 °C 30.12 in /  1019.9 hPa WNW 7.0 mph /  11.3 km/h 14.0 mph /  22.5 km/h 92 % 0.03 in /  0.76 mm 18 W/m2
09:40 48.0 °F /  8.9 °C 45.8 °F /  7.7 °C 30.12 in /  1019.9 hPa NW 8.0 mph /  12.9 km/h 14.0 mph /  22.5 km/h 92 % 0.05 in /  1.27 mm 11 W/m2
09:45 47.7 °F /  8.7 °C 45.5 °F /  7.5 °C 30.13 in /  1020.2 hPa NW 9.0 mph /  14.5 km/h 15.0 mph /  24.1 km/h 92 % 0.06 in /  1.52 mm 18 W/m2
09:50 47.1 °F /  8.4 °C 44.9 °F /  7.2 °C 30.13 in /  1020.2 hPa NW 9.0 mph /  14.5 km/h 15.0 mph /  24.1 km/h 92 % 0.06 in /  1.52 mm 30 W/m2
09:55 46.9 °F /  8.3 °C 44.7 °F /  7.1 °C 30.14 in /  1020.5 hPa NW 10.0 mph /  16.1 km/h 15.0 mph /  24.1 km/h 92 % 0.06 in /  1.52 mm 28 W/m2
10:00 46.8 °F /  8.2 °C 44.8 °F /  7.1 °C 30.14 in /  1020.5 hPa NW 10.0 mph /  16.1 km/h 16.0 mph /  25.7 km/h 93 % 0.06 in /  1.52 mm 19 W/m2
10:05 46.4 °F /  8 °C 44.2 °F /  6.8 °C 30.14 in /  1020.5 hPa WNW 10.0 mph /  16.1 km/h 15.0 mph /  24.1 km/h 92 % 0.07 in /  1.78 mm 26 W/m2
10:10 46.0 °F /  7.8 °C 44.1 °F /  6.7 °C 30.14 in /  1020.5 hPa WNW 13.0 mph /  20.9 km/h 21.0 mph /  33.8 km/h 93 % 0.06 in /  1.52 mm 39 W/m2
10:15 45.9 °F /  7.7 °C 43.7 °F /  6.5 °C 30.14 in /  1020.5 hPa WNW 10.0 mph /  16.1 km/h 20.0 mph /  32.2 km/h 92 % 0.07 in /  1.78 mm 49 W/m2
10:20 45.7 °F /  7.6 °C 43.8 °F /  6.6 °C 30.14 in /  1020.5 hPa NW 9.0 mph /  14.5 km/h 15.0 mph /  24.1 km/h 93 % 0.06 in /  1.52 mm 58 W/m2
10:25 45.7 °F /  7.6 °C 43.8 °F /  6.6 °C 30.15 in /  1020.9 hPa WNW 8.0 mph /  12.9 km/h 12.0 mph /  19.3 km/h 93 % 0.06 in /  1.52 mm 53 W/m2
10:31 45.7 °F /  7.6 °C 43.8 °F /  6.6 °C 30.15 in /  1020.9 hPa WNW 10.0 mph /  16.1 km/h 18.0 mph /  29 km/h 93 % 0.06 in /  1.52 mm 70 W/m2
10:36 45.7 °F /  7.6 °C 43.8 °F /  6.6 °C 30.15 in /  1020.9 hPa WNW 11.0 mph /  17.7 km/h 18.0 mph /  29 km/h 93 % 0.05 in /  1.27 mm 86 W/m2
10:41 45.7 °F /  7.6 °C 43.5 °F /  6.4 °C 30.15 in /  1020.9 hPa WNW 10.0 mph /  16.1 km/h 15.0 mph /  24.1 km/h 92 % 0.04 in /  1.02 mm 83 W/m2
10:46 45.7 °F /  7.6 °C 43.8 °F /  6.6 °C 30.16 in /  1021.2 hPa WNW 8.0 mph /  12.9 km/h 12.0 mph /  19.3 km/h 93 % 0.03 in /  0.76 mm 107 W/m2
10:51 45.7 °F /  7.6 °C 43.5 °F /  6.4 °C 30.16 in /  1021.2 hPa WNW 9.0 mph /  14.5 km/h 15.0 mph /  24.1 km/h 92 % 0.03 in /  0.76 mm 67 W/m2
10:56 45.7 °F /  7.6 °C 43.5 °F /  6.4 °C 30.16 in /  1021.2 hPa WNW 10.0 mph /  16.1 km/h 15.0 mph /  24.1 km/h 92 % 0.03 in /  0.76 mm 95 W/m2
11:01 45.7 °F /  7.6 °C 43.5 °F /  6.4 °C 30.16 in /  1021.2 hPa WNW 8.0 mph /  12.9 km/h 13.0 mph /  20.9 km/h 92 % 0.02 in /  0.51 mm 93 W/m2
11:06 45.7 °F /  7.6 °C 43.5 °F /  6.4 °C 30.16 in /  1021.2 hPa WNW 9.0 mph /  14.5 km/h 13.0 mph /  20.9 km/h 92 % 0.02 in /  0.51 mm 83 W/m2
11:11 45.9 °F /  7.7 °C 43.7 °F /  6.5 °C 30.16 in /  1021.2 hPa WNW 7.0 mph /  11.3 km/h 12.0 mph /  19.3 km/h 92 % 0.01 in /  0.25 mm 102 W/m2
11:16 45.9 °F /  7.7 °C 43.7 °F /  6.5 °C 30.16 in /  1021.2 hPa WNW 9.0 mph /  14.5 km/h 13.0 mph /  20.9 km/h 92 % 0.01 in /  0.25 mm 125 W/m2
11:21 45.9 °F /  7.7 °C 43.7 °F /  6.5 °C 30.16 in /  1021.2 hPa WNW 10.0 mph /  16.1 km/h 19.0 mph /  30.6 km/h 92 % 0.01 in /  0.25 mm 132 W/m2
11:26 45.9 °F /  7.7 °C 43.7 °F /  6.5 °C 30.17 in /  1021.6 hPa WNW 10.0 mph /  16.1 km/h 18.0 mph /  29 km/h 92 % 0.00 in /  0 mm 130 W/m2
11:31 46.0 °F /  7.8 °C 43.6 °F /  6.4 °C 30.17 in /  1021.6 hPa WNW 12.0 mph /  19.3 km/h 22.0 mph /  35.4 km/h 91 % 0.00 in /  0 mm 255 W/m2
11:36 46.2 °F /  7.9 °C 43.7 °F /  6.5 °C 30.17 in /  1021.6 hPa WNW 10.0 mph /  16.1 km/h 16.0 mph /  25.7 km/h 91 % 0.00 in /  0 mm 163 W/m2
11:41 46.4 °F /  8 °C 43.6 °F /  6.4 °C 30.17 in /  1021.6 hPa WNW 10.0 mph /  16.1 km/h 14.0 mph /  22.5 km/h 90 % 0.00 in /  0 mm 60 W/m2
11:46 46.2 °F /  7.9 °C 43.4 °F /  6.3 °C 30.18 in /  1021.9 hPa WNW 14.0 mph /  22.5 km/h 20.0 mph /  32.2 km/h 90 % 0.00 in /  0 mm 63 W/m2
11:51 46.0 °F /  7.8 °C 43.3 °F /  6.3 °C 30.18 in /  1021.9 hPa WNW 11.0 mph /  17.7 km/h 18.0 mph /  29 km/h 90 % 0.00 in /  0 mm 111 W/m2
11:56 45.9 °F /  7.7 °C 42.8 °F /  6 °C 30.18 in /  1021.9 hPa WNW 13.0 mph /  20.9 km/h 21.0 mph /  33.8 km/h 89 % 0.00 in /  0 mm 176 W/m2
12:01 45.9 °F /  7.7 °C 42.8 °F /  6 °C 30.18 in /  1021.9 hPa WNW 11.0 mph /  17.7 km/h 22.0 mph /  35.4 km/h 89 % 0.00 in /  0 mm 137 W/m2
12:06 45.9 °F /  7.7 °C 42.8 °F /  6 °C 30.18 in /  1021.9 hPa NW 12.0 mph /  19.3 km/h 21.0 mph /  33.8 km/h 89 % 0.00 in /  0 mm 120 W/m2
12:11 45.9 °F /  7.7 °C 42.8 °F /  6 °C 30.19 in /  1022.2 hPa WNW 9.0 mph /  14.5 km/h 16.0 mph /  25.7 km/h 89 % 0.00 in /  0 mm 207 W/m2
12:16 46.0 °F /  7.8 °C 42.7 °F /  5.9 °C 30.19 in /  1022.2 hPa WNW 10.0 mph /  16.1 km/h 16.0 mph /  25.7 km/h 88 % 0.00 in /  0 mm 139 W/m2
12:21 46.0 °F /  7.8 °C 42.4 °F /  5.8 °C 30.19 in /  1022.2 hPa WNW 16.0 mph /  25.7 km/h 27.0 mph /  43.5 km/h 87 % 0.00 in /  0 mm 97 W/m2
12:26 45.9 °F /  7.7 °C 42.2 °F /  5.7 °C 30.19 in /  1022.2 hPa WNW 10.0 mph /  16.1 km/h 21.0 mph /  33.8 km/h 87 % 0.00 in /  0 mm 97 W/m2
12:31 45.9 °F /  7.7 °C 42.2 °F /  5.7 °C 30.20 in /  1022.6 hPa WNW 13.0 mph /  20.9 km/h 21.0 mph /  33.8 km/h 87 % 0.00 in /  0 mm 116 W/m2
12:36 45.9 °F /  7.7 °C 42.2 °F /  5.7 °C 30.20 in /  1022.6 hPa WNW 7.0 mph /  11.3 km/h 12.0 mph /  19.3 km/h 87 % 0.00 in /  0 mm 125 W/m2
12:41 46.0 °F /  7.8 °C 42.7 °F /  5.9 °C 30.19 in /  1022.2 hPa NW 11.0 mph /  17.7 km/h 19.0 mph /  30.6 km/h 88 % 0.00 in /  0 mm 371 W/m2
12:46 46.6 °F /  8.1 °C 42.9 °F /  6.1 °C 30.19 in /  1022.2 hPa WNW 11.0 mph /  17.7 km/h 21.0 mph /  33.8 km/h 87 % 0.00 in /  0 mm 271 W/m2
12:52 46.8 °F /  8.2 °C 42.8 °F /  6 °C 30.19 in /  1022.2 hPa WNW 11.0 mph /  17.7 km/h 18.0 mph /  29 km/h 86 % 0.00 in /  0 mm 350 W/m2
12:57 47.1 °F /  8.4 °C 42.5 °F /  5.8 °C 30.19 in /  1022.2 hPa WNW 14.0 mph /  22.5 km/h 23.0 mph /  37 km/h 84 % 0.00 in /  0 mm 338 W/m2
13:02 47.1 °F /  8.4 °C 42.2 °F /  5.7 °C 30.19 in /  1022.2 hPa NW 13.0 mph /  20.9 km/h 21.0 mph /  33.8 km/h 83 % 0.00 in /  0 mm 355 W/m2
13:07 47.5 °F /  8.6 °C 42.6 °F /  5.9 °C 30.19 in /  1022.2 hPa NW 10.0 mph /  16.1 km/h 20.0 mph /  32.2 km/h 83 % 0.00 in /  0 mm 381 W/m2
13:12 47.8 °F /  8.8 °C 42.6 °F /  5.9 °C 30.20 in /  1022.6 hPa WNW 15.0 mph /  24.1 km/h 24.0 mph /  38.6 km/h 82 % 0.00 in /  0 mm 441 W/m2
13:17 47.8 °F /  8.8 °C 42.3 °F /  5.7 °C 30.20 in /  1022.6 hPa WNW 11.0 mph /  17.7 km/h 19.0 mph /  30.6 km/h 81 % 0.00 in /  0 mm 165 W/m2
13:22 47.7 °F /  8.7 °C 42.1 °F /  5.6 °C 30.21 in /  1022.9 hPa WNW 13.0 mph /  20.9 km/h 22.0 mph /  35.4 km/h 81 % 0.00 in /  0 mm 431 W/m2
13:27 47.8 °F /  8.8 °C 42.0 °F /  5.6 °C 30.21 in /  1022.9 hPa WNW 16.0 mph /  25.7 km/h 26.0 mph /  41.8 km/h 80 % 0.00 in /  0 mm 410 W/m2
13:32 48.0 °F /  8.9 °C 41.5 °F /  5.3 °C 30.20 in /  1022.6 hPa NW 12.0 mph /  19.3 km/h 20.0 mph /  32.2 km/h 78 % 0.00 in /  0 mm 373 W/m2
13:37 48.6 °F /  9.2 °C 42.3 °F /  5.7 °C 30.20 in /  1022.6 hPa WNW 11.0 mph /  17.7 km/h 21.0 mph /  33.8 km/h 79 % 0.00 in /  0 mm 352 W/m2
13:42 48.4 °F /  9.1 °C 41.2 °F /  5.1 °C 30.21 in /  1022.9 hPa NW 15.0 mph /  24.1 km/h 29.0 mph /  46.7 km/h 76 % 0.00 in /  0 mm 114 W/m2
13:47 47.8 °F /  8.8 °C 41.0 °F /  5 °C 30.21 in /  1022.9 hPa NW 11.0 mph /  17.7 km/h 18.0 mph /  29 km/h 77 % 0.00 in /  0 mm 77 W/m2
13:52 47.1 °F /  8.4 °C 40.6 °F /  4.8 °C 30.22 in /  1023.2 hPa NW 14.0 mph /  22.5 km/h 24.0 mph /  38.6 km/h 78 % 0.00 in /  0 mm 74 W/m2
13:57 46.4 °F /  8 °C 40.2 °F /  4.6 °C 30.21 in /  1022.9 hPa NW 15.0 mph /  24.1 km/h 24.0 mph /  38.6 km/h 79 % 0.00 in /  0 mm 60 W/m2
14:02 45.9 °F /  7.7 °C 39.7 °F /  4.3 °C 30.22 in /  1023.2 hPa WNW 13.0 mph /  20.9 km/h 24.0 mph /  38.6 km/h 79 % 0.00 in /  0 mm 88 W/m2
14:07 45.7 °F /  7.6 °C 39.9 °F /  4.4 °C 30.22 in /  1023.2 hPa WNW 10.0 mph /  16.1 km/h 18.0 mph /  29 km/h 80 % 0.00 in /  0 mm 244 W/m2
14:12 45.9 °F /  7.7 °C 39.7 °F /  4.3 °C 30.23 in /  1023.6 hPa WNW 13.0 mph /  20.9 km/h 21.0 mph /  33.8 km/h 79 % 0.00 in /  0 mm 241 W/m2
14:17 46.2 °F /  7.9 °C 40.1 °F /  4.5 °C 30.23 in /  1023.6 hPa WNW 10.0 mph /  16.1 km/h 18.0 mph /  29 km/h 79 % 0.00 in /  0 mm 244 W/m2
14:22 46.6 °F /  8.1 °C 40.1 °F /  4.5 °C 30.23 in /  1023.6 hPa WNW 12.0 mph /  19.3 km/h 18.0 mph /  29 km/h 78 % 0.00 in /  0 mm 239 W/m2
14:27 46.6 °F /  8.1 °C 39.8 °F /  4.3 °C 30.23 in /  1023.6 hPa WNW 14.0 mph /  22.5 km/h 22.0 mph /  35.4 km/h 77 % 0.00 in /  0 mm 229 W/m2
14:32 46.8 °F /  8.2 °C 39.6 °F /  4.2 °C 30.24 in /  1023.9 hPa WNW 13.0 mph /  20.9 km/h 20.0 mph /  32.2 km/h 76 % 0.00 in /  0 mm 221 W/m2
14:37 46.8 °F /  8.2 °C 39.6 °F /  4.2 °C 30.24 in /  1023.9 hPa NW 10.0 mph /  16.1 km/h 16.0 mph /  25.7 km/h 76 % 0.00 in /  0 mm 218 W/m2
14:42 46.8 °F /  8.2 °C 39.6 °F /  4.2 °C 30.25 in /  1024.3 hPa WNW 11.0 mph /  17.7 km/h 19.0 mph /  30.6 km/h 76 % 0.00 in /  0 mm 288 W/m2
14:47 47.1 °F /  8.4 °C 39.9 °F /  4.4 °C 30.25 in /  1024.3 hPa WNW 10.0 mph /  16.1 km/h 21.0 mph /  33.8 km/h 76 % 0.00 in /  0 mm 234 W/m2
14:52 47.1 °F /  8.4 °C 39.6 °F /  4.2 °C 30.25 in /  1024.3 hPa NW 12.0 mph /  19.3 km/h 20.0 mph /  32.2 km/h 75 % 0.00 in /  0 mm 197 W/m2
14:57 47.3 °F /  8.5 °C 39.8 °F /  4.3 °C 30.25 in /  1024.3 hPa WNW 12.0 mph /  19.3 km/h 20.0 mph /  32.2 km/h 75 % 0.00 in /  0 mm 216 W/m2
15:02 47.1 °F /  8.4 °C 39.3 °F /  4.1 °C 30.25 in /  1024.3 hPa WNW 11.0 mph /  17.7 km/h 20.0 mph /  32.2 km/h 74 % 0.00 in /  0 mm 229 W/m2
15:07 47.3 °F /  8.5 °C 39.4 °F /  4.1 °C 30.26 in /  1024.6 hPa WNW 11.0 mph /  17.7 km/h 15.0 mph /  24.1 km/h 74 % 0.00 in /  0 mm 225 W/m2
15:12 47.1 °F /  8.4 °C 39.3 °F /  4.1 °C 30.26 in /  1024.6 hPa WNW 13.0 mph /  20.9 km/h 19.0 mph /  30.6 km/h 74 % 0.00 in /  0 mm 46 W/m2
15:18 46.8 °F /  8.2 °C 38.9 °F /  3.8 °C 30.26 in /  1024.6 hPa NW 12.0 mph /  19.3 km/h 19.0 mph /  30.6 km/h 74 % 0.00 in /  0 mm 30 W/m2
15:23 46.0 °F /  7.8 °C 38.9 °F /  3.8 °C 30.27 in /  1024.9 hPa WNW 14.0 mph /  22.5 km/h 23.0 mph /  37 km/h 76 % 0.00 in /  0 mm 37 W/m2
15:28 45.3 °F /  7.4 °C 37.9 °F /  3.3 °C 30.27 in /  1024.9 hPa WNW 14.0 mph /  22.5 km/h 23.0 mph /  37 km/h 75 % 0.00 in /  0 mm 30 W/m2
15:33 45.0 °F /  7.2 °C 38.2 °F /  3.4 °C 30.27 in /  1024.9 hPa WNW 11.0 mph /  17.7 km/h 20.0 mph /  32.2 km/h 77 % 0.00 in /  0 mm 28 W/m2
15:38 44.8 °F /  7.1 °C 38.3 °F /  3.5 °C 30.27 in /  1024.9 hPa WNW 13.0 mph /  20.9 km/h 20.0 mph /  32.2 km/h 78 % 0.00 in /  0 mm 37 W/m2
15:43 44.4 °F /  6.9 °C 38.0 °F /  3.3 °C 30.27 in /  1024.9 hPa WNW 11.0 mph /  17.7 km/h 15.0 mph /  24.1 km/h 78 % 0.00 in /  0 mm 33 W/m2
15:48 44.4 °F /  6.9 °C 38.3 °F /  3.5 °C 30.27 in /  1024.9 hPa West 9.0 mph /  14.5 km/h 15.0 mph /  24.1 km/h 79 % 0.00 in /  0 mm 28 W/m2
15:53 44.2 °F /  6.8 °C 38.1 °F /  3.4 °C 30.28 in /  1025.3 hPa WNW 8.0 mph /  12.9 km/h 13.0 mph /  20.9 km/h 79 % 0.00 in /  0 mm 28 W/m2
15:58 44.1 °F /  6.7 °C 38.0 °F /  3.3 °C 30.28 in /  1025.3 hPa WNW 11.0 mph /  17.7 km/h 19.0 mph /  30.6 km/h 79 % 0.00 in /  0 mm 25 W/m2
16:03 44.1 °F /  6.7 °C 37.6 °F /  3.1 °C 30.29 in /  1025.6 hPa NW 8.0 mph /  12.9 km/h 14.0 mph /  22.5 km/h 78 % 0.00 in /  0 mm 23 W/m2
16:08 43.9 °F /  6.6 °C 37.5 °F /  3.1 °C 30.29 in /  1025.6 hPa NW 7.0 mph /  11.3 km/h 13.0 mph /  20.9 km/h 78 % 0.00 in /  0 mm 21 W/m2
16:13 43.5 °F /  6.4 °C 37.1 °F /  2.8 °C 30.30 in /  1026 hPa NW 6.0 mph /  9.7 km/h 11.0 mph /  17.7 km/h 78 % 0.00 in /  0 mm 19 W/m2
16:18 43.3 °F /  6.3 °C 36.9 °F /  2.7 °C 30.30 in /  1026 hPa NW 7.0 mph /  11.3 km/h 13.0 mph /  20.9 km/h 78 % 0.00 in /  0 mm 16 W/m2
16:23 43.2 °F /  6.2 °C 37.1 °F /  2.8 °C 30.30 in /  1026 hPa NW 6.0 mph /  9.7 km/h 11.0 mph /  17.7 km/h 79 % 0.00 in /  0 mm 14 W/m2
16:28 43.2 °F /  6.2 °C 37.1 °F /  2.8 °C 30.30 in /  1026 hPa WNW 12.0 mph /  19.3 km/h 21.0 mph /  33.8 km/h 79 % 0.00 in /  0 mm 11 W/m2
16:33 43.0 °F /  6.1 °C 37.2 °F /  2.9 °C 30.30 in /  1026 hPa WNW 7.0 mph /  11.3 km/h 9.0 mph /  14.5 km/h 80 % 0.00 in /  0 mm 9 W/m2
16:38 43.0 °F /  6.1 °C 37.2 °F /  2.9 °C 30.30 in /  1026 hPa WNW 7.0 mph /  11.3 km/h 14.0 mph /  22.5 km/h 80 % 0.00 in /  0 mm 7 W/m2
16:43 42.6 °F /  5.9 °C 37.2 °F /  2.9 °C 30.30 in /  1026 hPa WNW 8.0 mph /  12.9 km/h 11.0 mph /  17.7 km/h 81 % 0.00 in /  0 mm 5 W/m2
16:48 42.6 °F /  5.9 °C 37.2 °F /  2.9 °C 30.31 in /  1026.3 hPa WNW 8.0 mph /  12.9 km/h 14.0 mph /  22.5 km/h 81 % 0.00 in /  0 mm 0 W/m2
16:53 42.4 °F /  5.8 °C 37.0 °F /  2.8 °C 30.31 in /  1026.3 hPa WNW 9.0 mph /  14.5 km/h 12.0 mph /  19.3 km/h 81 % 0.00 in /  0 mm 0 W/m2
16:58 42.4 °F /  5.8 °C 37.0 °F /  2.8 °C 30.31 in /  1026.3 hPa WNW 9.0 mph /  14.5 km/h 14.0 mph /  22.5 km/h 81 % 0.00 in /  0 mm 0 W/m2
17:03 42.4 °F /  5.8 °C 37.0 °F /  2.8 °C 30.31 in /  1026.3 hPa WNW 9.0 mph /  14.5 km/h 13.0 mph /  20.9 km/h 81 % 0.00 in /  0 mm 0 W/m2
17:08 42.4 °F /  5.8 °C 37.0 °F /  2.8 °C 30.31 in /  1026.3 hPa West 10.0 mph /  16.1 km/h 16.0 mph /  25.7 km/h 81 % 0.00 in /  0 mm 0 W/m2
17:13 42.6 °F /  5.9 °C 36.9 °F /  2.7 °C 30.32 in /  1026.6 hPa WNW 9.0 mph /  14.5 km/h 14.0 mph /  22.5 km/h 80 % 0.00 in /  0 mm 0 W/m2
17:19 42.6 °F /  5.9 °C 37.2 °F /  2.9 °C 30.32 in /  1026.6 hPa WNW 8.0 mph /  12.9 km/h 12.0 mph /  19.3 km/h 81 % 0.00 in /  0 mm 0 W/m2
17:24 42.6 °F /  5.9 °C 37.2 °F /  2.9 °C 30.32 in /  1026.6 hPa WNW 7.0 mph /  11.3 km/h 12.0 mph /  19.3 km/h 81 % 0.00 in /  0 mm 0 W/m2
17:29 42.6 °F /  5.9 °C 37.2 °F /  2.9 °C 30.33 in /  1027 hPa WNW 7.0 mph /  11.3 km/h 10.0 mph /  16.1 km/h 81 % 0.00 in /  0 mm 0 W/m2
17:34 42.8 °F /  6 °C 37.4 °F /  3 °C 30.33 in /  1027 hPa WNW 6.0 mph /  9.7 km/h 10.0 mph /  16.1 km/h 81 % 0.00 in /  0 mm 0 W/m2
17:39 42.8 °F /  6 °C 37.4 °F /  3 °C 30.33 in /  1027 hPa WNW 5.0 mph /  8 km/h 13.0 mph /  20.9 km/h 81 % 0.00 in /  0 mm 0 W/m2
17:44 42.8 °F /  6 °C 37.4 °F /  3 °C 30.33 in /  1027 hPa WNW 7.0 mph /  11.3 km/h 12.0 mph /  19.3 km/h 81 % 0.00 in /  0 mm 0 W/m2
17:49 42.6 °F /  5.9 °C 37.2 °F /  2.9 °C 30.34 in /  1027.3 hPa WNW 7.0 mph /  11.3 km/h 12.0 mph /  19.3 km/h 81 % 0.00 in /  0 mm 0 W/m2
17:54 42.6 °F /  5.9 °C 37.2 °F /  2.9 °C 30.34 in /  1027.3 hPa WNW 8.0 mph /  12.9 km/h 12.0 mph /  19.3 km/h 81 % 0.00 in /  0 mm 0 W/m2
17:59 42.6 °F /  5.9 °C 37.2 °F /  2.9 °C 30.34 in /  1027.3 hPa WNW 9.0 mph /  14.5 km/h 14.0 mph /  22.5 km/h 81 % 0.00 in /  0 mm 0 W/m2
18:04 42.4 °F /  5.8 °C 37.0 °F /  2.8 °C 30.34 in /  1027.3 hPa WNW 8.0 mph /  12.9 km/h 12.0 mph /  19.3 km/h 81 % 0.00 in /  0 mm 0 W/m2
18:09 42.3 °F /  5.7 °C 36.8 °F /  2.7 °C 30.34 in /  1027.3 hPa WNW 9.0 mph /  14.5 km/h 14.0 mph /  22.5 km/h 81 % 0.00 in /  0 mm 0 W/m2
18:14 42.1 °F /  5.6 °C 37.0 °F /  2.8 °C 30.35 in /  1027.7 hPa WNW 8.0 mph /  12.9 km/h 13.0 mph /  20.9 km/h 82 % 0.00 in /  0 mm 0 W/m2
18:19 41.9 °F /  5.5 °C 36.8 °F /  2.7 °C 30.35 in /  1027.7 hPa WNW 9.0 mph /  14.5 km/h 14.0 mph /  22.5 km/h 82 % 0.00 in /  0 mm 0 W/m2
18:24 41.7 °F /  5.4 °C 36.6 °F /  2.6 °C 30.35 in /  1027.7 hPa West 10.0 mph /  16.1 km/h 14.0 mph /  22.5 km/h 82 % 0.00 in /  0 mm 0 W/m2
18:29 41.7 °F /  5.4 °C 36.6 °F /  2.6 °C 30.35 in /  1027.7 hPa WNW 6.0 mph /  9.7 km/h 9.0 mph /  14.5 km/h 82 % 0.00 in /  0 mm 0 W/m2
18:34 41.5 °F /  5.3 °C 36.5 °F /  2.5 °C 30.35 in /  1027.7 hPa WNW 5.0 mph /  8 km/h 8.0 mph /  12.9 km/h 82 % 0.00 in /  0 mm 0 W/m2
18:39 41.4 °F /  5.2 °C 36.3 °F /  2.4 °C 30.36 in /  1028 hPa WNW 6.0 mph /  9.7 km/h 9.0 mph /  14.5 km/h 82 % 0.00 in /  0 mm 0 W/m2
18:44 41.4 °F /  5.2 °C 36.3 °F /  2.4 °C 30.36 in /  1028 hPa WNW 6.0 mph /  9.7 km/h 11.0 mph /  17.7 km/h 82 % 0.00 in /  0 mm 0 W/m2
18:49 41.2 °F /  5.1 °C 36.4 °F /  2.4 °C 30.36 in /  1028 hPa WNW 8.0 mph /  12.9 km/h 13.0 mph /  20.9 km/h 83 % 0.00 in /  0 mm 0 W/m2
18:54 41.2 °F /  5.1 °C 36.4 °F /  2.4 °C 30.36 in /  1028 hPa WNW 8.0 mph /  12.9 km/h 14.0 mph /  22.5 km/h 83 % 0.00 in /  0 mm 0 W/m2
18:59 41.2 °F /  5.1 °C 36.4 °F /  2.4 °C 30.35 in /  1027.7 hPa WNW 9.0 mph /  14.5 km/h 14.0 mph /  22.5 km/h 83 % 0.00 in /  0 mm 0 W/m2
19:04 41.2 °F /  5.1 °C 36.4 °F /  2.4 °C 30.36 in /  1028 hPa WNW 10.0 mph /  16.1 km/h 16.0 mph /  25.7 km/h 83 % 0.00 in /  0 mm 0 W/m2
19:09 41.2 °F /  5.1 °C 36.4 °F /  2.4 °C 30.35 in /  1027.7 hPa WNW 10.0 mph /  16.1 km/h 14.0 mph /  22.5 km/h 83 % 0.00 in /  0 mm 0 W/m2
19:14 41.2 °F /  5.1 °C 36.4 °F /  2.4 °C 30.36 in /  1028 hPa WNW 9.0 mph /  14.5 km/h 14.0 mph /  22.5 km/h 83 % 0.00 in /  0 mm 0 W/m2
19:19 41.0 °F /  5 °C 36.2 °F /  2.3 °C 30.36 in /  1028 hPa WNW 9.0 mph /  14.5 km/h 13.0 mph /  20.9 km/h 83 % 0.00 in /  0 mm 0 W/m2
19:24 40.8 °F /  4.9 °C 36.1 °F /  2.3 °C 30.37 in /  1028.3 hPa West 6.0 mph /  9.7 km/h 11.0 mph /  17.7 km/h 83 % 0.00 in /  0 mm 0 W/m2
19:29 40.8 °F /  4.9 °C 36.1 °F /  2.3 °C 30.38 in /  1028.7 hPa West 6.0 mph /  9.7 km/h 13.0 mph /  20.9 km/h 83 % 0.00 in /  0 mm 0 W/m2
19:34 40.8 °F /  4.9 °C 36.1 °F /  2.3 °C 30.37 in /  1028.3 hPa West 8.0 mph /  12.9 km/h 12.0 mph /  19.3 km/h 83 % 0.00 in /  0 mm 0 W/m2
19:39 40.8 °F /  4.9 °C 36.1 °F /  2.3 °C 30.37 in /  1028.3 hPa West 8.0 mph /  12.9 km/h 12.0 mph /  19.3 km/h 83 % 0.00 in /  0 mm 0 W/m2
19:44 40.6 °F /  4.8 °C 35.9 °F /  2.2 °C 30.37 in /  1028.3 hPa West 10.0 mph /  16.1 km/h 14.0 mph /  22.5 km/h 83 % 0.00 in /  0 mm 0 W/m2
19:49 40.6 °F /  4.8 °C 36.2 °F /  2.3 °C 30.38 in /  1028.7 hPa West 9.0 mph /  14.5 km/h 14.0 mph /  22.5 km/h 84 % 0.00 in /  0 mm 0 W/m2
19:54 40.6 °F /  4.8 °C 36.2 °F /  2.3 °C 30.38 in /  1028.7 hPa WNW 10.0 mph /  16.1 km/h 14.0 mph /  22.5 km/h 84 % 0.00 in /  0 mm 0 W/m2
19:59 40.5 °F /  4.7 °C 36.0 °F /  2.2 °C 30.38 in /  1028.7 hPa WNW 9.0 mph /  14.5 km/h 12.0 mph /  19.3 km/h 84 % 0.00 in /  0 mm 0 W/m2
20:04 40.5 °F /  4.7 °C 36.0 °F /  2.2 °C 30.39 in /  1029 hPa WNW 7.0 mph /  11.3 km/h 10.0 mph /  16.1 km/h 84 % 0.00 in /  0 mm 0 W/m2
20:09 40.5 °F /  4.7 °C 36.0 °F /  2.2 °C 30.39 in /  1029 hPa WNW 9.0 mph /  14.5 km/h 13.0 mph /  20.9 km/h 84 % 0.00 in /  0 mm 0 W/m2
20:14 40.5 °F /  4.7 °C 36.0 °F /  2.2 °C 30.39 in /  1029 hPa NW 8.0 mph /  12.9 km/h 13.0 mph /  20.9 km/h 84 % 0.00 in /  0 mm 0 W/m2
20:19 40.5 °F /  4.7 °C 36.0 °F /  2.2 °C 30.39 in /  1029 hPa WNW 9.0 mph /  14.5 km/h 14.0 mph /  22.5 km/h 84 % 0.00 in /  0 mm 0 W/m2
20:24 40.5 °F /  4.7 °C 36.0 °F /  2.2 °C 30.39 in /  1029 hPa WNW 9.0 mph /  14.5 km/h 13.0 mph /  20.9 km/h 84 % 0.00 in /  0 mm 0 W/m2
20:29 40.5 °F /  4.7 °C 36.0 °F /  2.2 °C 30.39 in /  1029 hPa NW 8.0 mph /  12.9 km/h 11.0 mph /  17.7 km/h 84 % 0.00 in /  0 mm 0 W/m2
20:35 40.3 °F /  4.6 °C 35.8 °F /  2.1 °C 30.39 in /  1029 hPa NW 5.0 mph /  8 km/h 11.0 mph /  17.7 km/h 84 % 0.00 in /  0 mm 0 W/m2
20:40 40.3 °F /  4.6 °C 35.8 °F /  2.1 °C 30.40 in /  1029.3 hPa NW 2.0 mph /  3.2 km/h 5.0 mph /  8 km/h 84 % 0.00 in /  0 mm 0 W/m2
20:45 40.3 °F /  4.6 °C 35.8 °F /  2.1 °C 30.40 in /  1029.3 hPa Calm   4.0 mph /  6.4 km/h 84 % 0.00 in /  0 mm 0 W/m2
20:50 39.9 °F /  4.4 °C 35.2 °F /  1.8 °C 30.40 in /  1029.3 hPa Calm     83 % 0.00 in /  0 mm 0 W/m2
20:55 39.7 °F /  4.3 °C 35.3 °F /  1.8 °C 30.40 in /  1029.3 hPa Calm   3.0 mph /  4.8 km/h 84 % 0.00 in /  0 mm 0 W/m2
21:00 39.6 °F /  4.2 °C 35.1 °F /  1.7 °C 30.40 in /  1029.3 hPa Calm   2.0 mph /  3.2 km/h 84 % 0.00 in /  0 mm 0 W/m2
21:05 39.4 °F /  4.1 °C 34.9 °F /  1.6 °C 30.41 in /  1029.7 hPa WNW 1.0 mph /  1.6 km/h 5.0 mph /  8 km/h 84 % 0.00 in /  0 mm 0 W/m2
21:10 39.4 °F /  4.1 °C 35.2 °F /  1.8 °C 30.41 in /  1029.7 hPa WNW 4.0 mph /  6.4 km/h 7.0 mph /  11.3 km/h 85 % 0.00 in /  0 mm 0 W/m2
21:15 39.4 °F /  4.1 °C 35.2 °F /  1.8 °C 30.40 in /  1029.3 hPa NW 6.0 mph /  9.7 km/h 11.0 mph /  17.7 km/h 85 % 0.00 in /  0 mm 0 W/m2
21:20 39.4 °F /  4.1 °C 35.5 °F /  1.9 °C 30.40 in /  1029.3 hPa NW 6.0 mph /  9.7 km/h 10.0 mph /  16.1 km/h 86 % 0.00 in /  0 mm 0 W/m2
21:25 39.6 °F /  4.2 °C 35.7 °F /  2.1 °C 30.40 in /  1029.3 hPa WNW 7.0 mph /  11.3 km/h 10.0 mph /  16.1 km/h 86 % 0.00 in /  0 mm 0 W/m2
21:30 39.7 °F /  4.3 °C 35.9 °F /  2.2 °C 30.40 in /  1029.3 hPa WNW 4.0 mph /  6.4 km/h 6.0 mph /  9.7 km/h 86 % 0.00 in /  0 mm 0 W/m2
21:35 39.7 °F /  4.3 °C 35.6 °F /  2 °C 30.40 in /  1029.3 hPa West 5.0 mph /  8 km/h 9.0 mph /  14.5 km/h 85 % 0.00 in /  0 mm 0 W/m2
21:40 39.7 °F /  4.3 °C 35.6 °F /  2 °C 30.40 in /  1029.3 hPa WNW 4.0 mph /  6.4 km/h 8.0 mph /  12.9 km/h 85 % 0.00 in /  0 mm 0 W/m2
21:45 39.9 °F /  4.4 °C 35.8 °F /  2.1 °C 30.41 in /  1029.7 hPa WNW 2.0 mph /  3.2 km/h 5.0 mph /  8 km/h 85 % 0.00 in /  0 mm 0 W/m2
21:50 39.7 °F /  4.3 °C 35.6 °F /  2 °C 30.40 in /  1029.3 hPa Calm   2.0 mph /  3.2 km/h 85 % 0.00 in /  0 mm 0 W/m2
21:55 39.7 °F /  4.3 °C 35.6 °F /  2 °C 30.41 in /  1029.7 hPa WSW 1.0 mph /  1.6 km/h 8.0 mph /  12.9 km/h 85 % 0.00 in /  0 mm 0 W/m2
22:00 39.7 °F /  4.3 °C 35.6 °F /  2 °C 30.41 in /  1029.7 hPa Calm     85 % 0.00 in /  0 mm 0 W/m2
22:05 39.6 °F /  4.2 °C 35.1 °F /  1.7 °C 30.41 in /  1029.7 hPa Calm   1.0 mph /  1.6 km/h 84 % 0.00 in /  0 mm 0 W/m2
22:10 39.4 °F /  4.1 °C 34.9 °F /  1.6 °C 30.41 in /  1029.7 hPa Calm   1.0 mph /  1.6 km/h 84 % 0.00 in /  0 mm 0 W/m2
22:15 39.2 °F /  4 °C 35.1 °F /  1.7 °C 30.40 in /  1029.3 hPa WNW 2.0 mph /  3.2 km/h 6.0 mph /  9.7 km/h 85 % 0.00 in /  0 mm 0 W/m2
22:20 39.0 °F /  3.9 °C 34.9 °F /  1.6 °C 30.41 in /  1029.7 hPa WNW 3.0 mph /  4.8 km/h 7.0 mph /  11.3 km/h 85 % 0.00 in /  0 mm 0 W/m2
22:25 38.8 °F /  3.8 °C 34.7 °F /  1.5 °C 30.40 in /  1029.3 hPa WNW 3.0 mph /  4.8 km/h 5.0 mph /  8 km/h 85 % 0.00 in /  0 mm 0 W/m2
22:30 38.8 °F /  3.8 °C 34.7 °F /  1.5 °C 30.41 in /  1029.7 hPa Calm   3.0 mph /  4.8 km/h 85 % 0.00 in /  0 mm 0 W/m2
22:35 38.7 °F /  3.7 °C 34.5 °F /  1.4 °C 30.41 in /  1029.7 hPa Calm     85 % 0.00 in /  0 mm 0 W/m2
22:40 38.5 °F /  3.6 °C 34.4 °F /  1.3 °C 30.40 in /  1029.3 hPa WNW 1.0 mph /  1.6 km/h 5.0 mph /  8 km/h 85 % 0.00 in /  0 mm 0 W/m2
22:45 38.3 °F /  3.5 °C 34.5 °F /  1.4 °C 30.41 in /  1029.7 hPa WNW 3.0 mph /  4.8 km/h 5.0 mph /  8 km/h 86 % 0.00 in /  0 mm 0 W/m2
22:50 38.3 °F /  3.5 °C 34.8 °F /  1.6 °C 30.41 in /  1029.7 hPa WSW 4.0 mph /  6.4 km/h 6.0 mph /  9.7 km/h 87 % 0.00 in /  0 mm 0 W/m2
22:55 38.3 °F /  3.5 °C 34.8 °F /  1.6 °C 30.41 in /  1029.7 hPa West 4.0 mph /  6.4 km/h 6.0 mph /  9.7 km/h 87 % 0.00 in /  0 mm 0 W/m2
23:00 38.1 °F /  3.4 °C 34.6 °F /  1.4 °C 30.40 in /  1029.3 hPa WNW 3.0 mph /  4.8 km/h 6.0 mph /  9.7 km/h 87 % 0.00 in /  0 mm 0 W/m2
23:05 38.1 °F /  3.4 °C 34.6 °F /  1.4 °C 30.41 in /  1029.7 hPa West 3.0 mph /  4.8 km/h 6.0 mph /  9.7 km/h 87 % 0.00 in /  0 mm 0 W/m2
23:10 38.1 °F /  3.4 °C 34.6 °F /  1.4 °C 30.40 in /  1029.3 hPa West 4.0 mph /  6.4 km/h 6.0 mph /  9.7 km/h 87 % 0.00 in /  0 mm 0 W/m2
23:15 38.3 °F /  3.5 °C 35.1 °F /  1.7 °C 30.40 in /  1029.3 hPa WNW 5.0 mph /  8 km/h 6.0 mph /  9.7 km/h 88 % 0.00 in /  0 mm 0 W/m2
23:21 38.5 °F /  3.6 °C 35.2 °F /  1.8 °C 30.41 in /  1029.7 hPa West 6.0 mph /  9.7 km/h 11.0 mph /  17.7 km/h 88 % 0.00 in /  0 mm 0 W/m2
23:26 38.7 °F /  3.7 °C 35.4 °F /  1.9 °C 30.41 in /  1029.7 hPa West 7.0 mph /  11.3 km/h 10.0 mph /  16.1 km/h 88 % 0.00 in /  0 mm 0 W/m2
23:31 39.0 °F /  3.9 °C 35.5 °F /  1.9 °C 30.40 in /  1029.3 hPa West 6.0 mph /  9.7 km/h 10.0 mph /  16.1 km/h 87 % 0.00 in /  0 mm 0 W/m2
23:36 39.0 °F /  3.9 °C 35.5 °F /  1.9 °C 30.41 in /  1029.7 hPa West 5.0 mph /  8 km/h 8.0 mph /  12.9 km/h 87 % 0.00 in /  0 mm 0 W/m2
23:41 39.2 °F /  4 °C 35.7 °F /  2.1 °C 30.41 in /  1029.7 hPa West 4.0 mph /  6.4 km/h 6.0 mph /  9.7 km/h 87 % 0.00 in /  0 mm 0 W/m2
23:46 39.4 °F /  4.1 °C 35.8 °F /  2.1 °C 30.41 in /  1029.7 hPa WSW 4.0 mph /  6.4 km/h 6.0 mph /  9.7 km/h 87 % 0.00 in /  0 mm 0 W/m2
23:51 39.4 °F /  4.1 °C 35.8 °F /  2.1 °C 30.41 in /  1029.7 hPa WSW 2.0 mph /  3.2 km/h 5.0 mph /  8 km/h 87 % 0.00 in /  0 mm 0 W/m2
23:56 39.4 °F /  4.1 °C 35.8 °F /  2.1 °C 30.40 in /  1029.3 hPa Calm     87 % 0.00 in /  0 mm 0 W/m2
Delerius-Weather
Compliments of Weather Underground - 2.25 mb

Data updates at regular intervals.